Stations météo

réclame
Mon MeteoGroup
Hinojosa Del Duque, Espagne (8335): Température de l'air & dewpoint: 10.12.2017 02:00:00 - 16.12.2017 02:00:00 (CET)Hinojosa Del Duque, Espagne (8335): Vitesse du vent & gusts: 10.12.2017 02:00:00 - 16.12.2017 02:00:00 (CET)Hinojosa Del Duque, Espagne (8335): Direction du vent: 10.12.2017 02:00:00 - 16.12.2017 02:00:00 (CET)Hinojosa Del Duque, Espagne (8335): reduced air pressure: 10.12.2017 02:00:00 - 16.12.2017 02:00:00 (CET)Hinojosa Del Duque, Espagne (8335): Quantités de précipitations: 10.12.2017 02:00:00 - 16.12.2017 02:00:00 (CET)
Date & Time tt [°C] td [°C] ff [km/h] ff [knt] fx [km/h] fx [knt] dd ppp [hPa] rr [mm]
16.12.2017 02:00:00 - - - - - - - - -
16.12.2017 01:00:00 3,9 1,1 8 5 12 7 WNW 1017,3 -
16.12.2017 00:00:00 4,5 0,9 8 5 22 12 NW 1016,8 0,0
15.12.2017 23:00:00 5,7 2,5 14 7 17 9 NW 1015,6 0,0
15.12.2017 22:00:00 7,3 5,1 13 7 20 11 WNW 1014,8 0,0
15.12.2017 21:00:00 8,7 5,9 18 10 34 18 NW 1014,2 0,0
15.12.2017 20:00:00 10,7 9,3 22 12 29 16 WNW 1012,9 0,0
15.12.2017 19:00:00 11,5 10,0 21 12 31 17 W 1012,3 -
15.12.2017 18:00:00 11,9 9,9 23 12 31 17 W 1012,2 0,0
15.12.2017 17:00:00 12,4 9,9 25 13 51 28 W 1012,1 0,0
15.12.2017 16:00:00 13,0 9,4 29 15 42 23 WSW 1011,7 0,0
15.12.2017 15:00:00 13,4 9,3 24 13 43 23 W 1012,0 0,0
15.12.2017 14:00:00 13,4 9,4 31 17 42 23 WSW 1012,5 0,0
15.12.2017 13:00:00 12,7 9,9 24 13 34 18 WSW 1013,8 -
15.12.2017 12:00:00 11,6 10,0 20 11 33 18 WSW 1015,4 0,0
15.12.2017 11:00:00 11,4 9,8 21 11 33 18 WSW 1015,9 0,0
15.12.2017 10:00:00 10,7 9,2 18 10 28 15 WSW 1015,9 0,0
15.12.2017 09:00:00 10,0 8,3 11 6 19 11 WSW 1016,6 0,0
15.12.2017 08:00:00 9,8 8,1 16 9 24 13 W 1016,4 0,0
15.12.2017 07:00:00 9,8 8,1 16 9 24 13 W 1016,9 -
15.12.2017 06:00:00 9,7 8,0 14 8 28 15 W 1017,0 0,0
15.12.2017 05:00:00 10,1 8,4 15 8 31 17 WNW 1017,5 0,0
15.12.2017 04:00:00 10,1 8,7 18 10 29 16 W 1017,8 0,0
15.12.2017 03:00:00 10,3 9,0 18 10 29 16 W 1017,9 0,0
15.12.2017 02:00:00 10,1 8,9 19 11 29 15 WSW 1018,2 0,0
15.12.2017 01:00:00 10,1 8,9 15 8 24 13 WSW 1019,0 -
15.12.2017 00:00:00 9,9 8,7 15 8 24 13 WSW 1019,7 0,0
14.12.2017 23:00:00 9,7 8,5 14 7 19 11 SW 1020,2 0,0
14.12.2017 22:00:00 9,8 8,5 13 7 27 15 SW 1020,9 0,0
14.12.2017 21:00:00 9,7 8,5 16 8 23 13 SW 1020,8 0,4
14.12.2017 20:00:00 9,9 8,7 13 7 25 13 SW 1021,2 0,1
14.12.2017 19:00:00 10,1 8,9 13 7 24 13 SW 1021,2 -
14.12.2017 18:00:00 10,6 9,2 15 8 27 15 WSW 1021,6 0,1
14.12.2017 17:00:00 11,1 9,6 19 10 28 15 W 1021,5 0,0
14.12.2017 16:00:00 11,3 9,7 17 9 26 14 WSW 1021,4 0,0
14.12.2017 15:00:00 10,9 9,4 15 8 24 13 SW 1021,9 0,0
14.12.2017 14:00:00 10,5 9,0 14 8 24 13 WSW 1023,2 0,0
14.12.2017 13:00:00 10,4 8,8 15 8 22 12 WSW 1024,5 -
14.12.2017 12:00:00 9,9 8,5 16 8 21 11 SW 1025,6 0,0
14.12.2017 11:00:00 8,3 7,1 13 7 19 10 SW 1026,4 0,0
14.12.2017 10:00:00 7,9 6,8 10 5 17 9 WSW 1026,4 0,0
14.12.2017 09:00:00 6,9 5,6 11 6 18 10 SW 1026,1 0,0
14.12.2017 08:00:00 6,5 5,0 8 5 16 9 SW 1026,4 0,0
14.12.2017 07:00:00 7,0 4,3 10 5 16 9 WSW 1026,4 -
14.12.2017 06:00:00 7,3 3,9 10 6 20 11 WSW 1026,4 0,0
14.12.2017 05:00:00 7,3 3,8 12 6 19 11 W 1027,0 0,0
14.12.2017 04:00:00 6,5 3,0 11 6 13 7 WSW 1027,3 0,0
14.12.2017 03:00:00 7,1 3,2 6 4 9 5 SW 1027,7 0,0
14.12.2017 02:00:00 7,3 3,0 4 2 10 6 WSW 1027,9 0,0
14.12.2017 01:00:00 7,2 2,3 9 5 13 7 WSW 1028,1 -
14.12.2017 00:00:00 6,5 2,5 3 2 6 4 S 1028,8 0,0
13.12.2017 23:00:00 5,7 1,9 5 3 9 5 W 1029,2 0,0
13.12.2017 22:00:00 5,3 0,0 5 3 7 4 SW 1029,4 0,0
13.12.2017 21:00:00 5,7 -0,5 5 3 7 4 W 1028,9 0,0
13.12.2017 20:00:00 5,6 -0,7 6 3 7 4 SW 1029,1 0,0
13.12.2017 19:00:00 7,1 -1,0 4 2 8 4 W 1028,4 -
13.12.2017 18:00:00 9,7 -2,0 5 3 11 6 W 1027,7 0,0
13.12.2017 17:00:00 12,5 -0,7 5 3 13 7 W 1027,1 0,0
13.12.2017 16:00:00 12,3 -1,2 6 3 13 7 W 1027,0 0,0
13.12.2017 15:00:00 11,3 -1,2 5 3 14 7 WSW 1027,4 0,0
13.12.2017 14:00:00 10,4 -1,7 4 2 10 5 WNW 1028,5 0,0
13.12.2017 13:00:00 9,1 1,3 3 2 8 5 SSW 1029,2 -
13.12.2017 12:00:00 6,2 1,3 3 1 6 3 E 1031,0 0,0
13.12.2017 11:00:00 3,7 1,1 4 2 14 7 N 1031,5 0,0
13.12.2017 10:00:00 3,2 -0,5 3 1 5 3 SE 1030,1 0,0
13.12.2017 09:00:00 -0,3 -1,4 5 3 8 5 S 1030,5 0,0
13.12.2017 08:00:00 -1,5 -2,7 7 4 8 4 SSE 1031,0 0,0
13.12.2017 07:00:00 -1,3 -3,0 5 3 8 5 NW 1030,7 -
13.12.2017 06:00:00 -0,3 -2,0 0 0 4 2 SSE 1029,3 0,0
13.12.2017 05:00:00 0,5 -1,2 1 1 6 3 WSW 1028,8 0,0
13.12.2017 04:00:00 -0,6 -2,5 3 2 8 4 SW 1029,2 0,0
13.12.2017 03:00:00 0,5 -1,7 5 3 7 4 SE 1028,6 0,0
13.12.2017 02:00:00 0,4 -2,0 5 3 8 4 SSE 1028,2 0,0
13.12.2017 01:00:00 0,8 -1,7 5 3 9 5 S 1027,6 -
13.12.2017 00:00:00 1,0 -1,7 4 2 6 3 SSW 1027,6 0,0
12.12.2017 23:00:00 2,0 -1,2 4 2 7 4 W 1026,6 0,0
12.12.2017 22:00:00 1,9 -1,4 4 2 7 4 W 1025,8 0,0
12.12.2017 21:00:00 2,6 -1,0 5 3 9 5 W 1025,2 0,0
12.12.2017 20:00:00 2,6 -1,0 6 4 13 7 WNW 1024,6 0,0
12.12.2017 19:00:00 4,5 -1,0 7 4 9 5 WNW 1023,0 -
12.12.2017 18:00:00 5,9 -1,0 9 5 13 7 N 1022,1 0,0
12.12.2017 17:00:00 8,6 -1,7 10 5 16 9 NNW 1021,1 0,0
12.12.2017 16:00:00 9,0 -2,0 10 6 21 11 NNW 1020,4 0,0
12.12.2017 15:00:00 9,0 -1,0 11 6 20 11 NW 1019,4 0,0
12.12.2017 14:00:00 8,3 -1,4 11 6 21 11 NW 1019,4 0,0
12.12.2017 13:00:00 7,8 0,0 8 4 13 7 NW 1019,3 -
12.12.2017 12:00:00 6,1 0,0 8 4 15 8 N 1019,5 0,0
12.12.2017 11:00:00 5,0 -0,5 6 3 8 5 WNW 1019,0 0,0
12.12.2017 10:00:00 3,9 0,6 0 0 7 4 SW 1018,9 0,0
12.12.2017 09:00:00 0,2 -1,4 6 3 10 6 W 1018,8 0,0
12.12.2017 08:00:00 -0,6 -2,5 8 4 11 6 WNW 1018,3 0,0
12.12.2017 07:00:00 -0,1 -2,0 9 5 12 7 NW 1016,7 -
12.12.2017 06:00:00 0,8 -1,4 12 7 16 9 NW 1015,3 0,0
12.12.2017 05:00:00 1,4 -0,7 10 5 14 8 WNW 1014,3 0,0
12.12.2017 04:00:00 2,2 0,2 13 7 16 9 NW 1013,1 0,0
12.12.2017 03:00:00 2,7 0,0 3 2 21 12 W 1011,3 0,0
12.12.2017 02:00:00 3,3 1,3 13 7 22 12 WNW 1011,1 0,0
12.12.2017 01:00:00 4,0 1,7 13 7 26 14 W 1010,2 -
12.12.2017 00:00:00 4,9 2,7 22 12 28 15 W 1008,6 0,0
11.12.2017 23:00:00 5,2 3,0 21 11 30 16 W 1007,8 0,0
11.12.2017 22:00:00 5,5 3,4 17 9 26 14 W 1006,7 0,0
11.12.2017 21:00:00 5,6 2,9 12 7 26 14 WSW 1006,2 0,0
11.12.2017 20:00:00 5,7 3,0 13 7 44 24 WSW 1005,1 0,8
11.12.2017 19:00:00 6,2 3,4 13 7 27 15 SW 1004,3 -
11.12.2017 18:00:00 6,8 3,6 19 10 41 22 WSW 1003,1 0,0
11.12.2017 17:00:00 9,0 1,5 19 11 34 18 WSW 1001,8 0,0
11.12.2017 16:00:00 9,2 0,9 27 15 38 21 W 1001,5 0,0
11.12.2017 15:00:00 9,1 1,1 27 14 41 22 W 1001,5 0,0
11.12.2017 14:00:00 9,2 1,7 26 14 47 26 W 1001,3 0,0
11.12.2017 13:00:00 8,8 3,0 29 16 43 23 W 1001,7 -
11.12.2017 12:00:00 7,6 2,9 30 16 44 24 W 1002,2 0,0
11.12.2017 11:00:00 6,5 3,6 19 10 37 20 W 1003,0 0,0
11.12.2017 10:00:00 5,9 3,4 25 14 35 19 W 1001,7 0,0
11.12.2017 09:00:00 5,2 3,4 20 11 29 15 WSW 1000,1 0,1
11.12.2017 08:00:00 4,8 3,2 21 11 34 18 WSW 999,4 2,7
11.12.2017 07:00:00 5,1 3,4 29 16 54 29 WNW 999,7 -
11.12.2017 06:00:00 6,4 4,8 33 18 50 27 NW 998,8 4,6
11.12.2017 05:00:00 8,0 6,1 34 19 56 31 W 997,6 8,0
11.12.2017 04:00:00 11,4 8,7 32 17 70 38 SW 996,2 1,2
11.12.2017 03:00:00 11,4 7,8 36 20 64 35 SSW 997,6 0,5
11.12.2017 02:00:00 11,5 7,6 32 17 55 30 SW 1000,4 0,4
11.12.2017 01:00:00 11,7 7,4 30 16 55 30 SSW 1002,6 -
11.12.2017 00:00:00 11,9 7,3 36 20 54 29 SW 1004,7 0,0
10.12.2017 23:00:00 11,7 7,0 25 14 51 27 SW 1006,2 0,0
10.12.2017 22:00:00 11,9 6,4 31 17 56 30 SW 1008,1 0,0
10.12.2017 21:00:00 11,5 7,0 17 9 32 17 SSW 1009,2 0,0
10.12.2017 20:00:00 11,8 7,3 24 13 36 19 SW 1011,2 0,0
10.12.2017 19:00:00 11,6 7,3 18 10 33 18 SSW 1012,3 -
10.12.2017 18:00:00 11,3 8,0 20 11 34 18 SW 1013,4 0,0
10.12.2017 17:00:00 10,9 8,5 23 13 37 20 SW 1014,5 0,0
10.12.2017 16:00:00 10,3 8,5 19 10 31 17 SW 1015,8 0,0
10.12.2017 15:00:00 10,6 8,1 21 11 37 20 SW 1017,2 0,0
10.12.2017 14:00:00 12,2 6,7 22 12 36 20 WSW 1018,5 0,0
10.12.2017 13:00:00 12,2 7,1 20 11 32 17 WSW 1019,7 -
10.12.2017 12:00:00 10,7 7,1 18 10 31 17 SW 1020,9 0,0
10.12.2017 11:00:00 10,0 6,7 17 9 33 18 WSW 1022,3 0,0
10.12.2017 10:00:00 9,9 7,7 14 8 21 11 WSW 1022,8 0,0
10.12.2017 09:00:00 8,5 7,0 13 7 20 11 WSW 1023,6 0,0
10.12.2017 08:00:00 9,1 7,4 9 5 12 7 SW 1023,5 0,0
10.12.2017 07:00:00 9,2 7,7 11 6 21 11 W 1023,5 -
10.12.2017 06:00:00 8,8 7,3 11 6 19 10 WNW 1024,0 0,0
10.12.2017 05:00:00 9,3 7,7 16 8 23 12 W 1024,2 0,0
10.12.2017 04:00:00 9,5 8,0 16 8 26 14 W 1025,0 0,0
10.12.2017 03:00:00 10,1 8,5 15 8 23 12 W 1025,2 0,0
10.12.2017 02:00:00 10,1 8,5 13 7 19 11 WSW 1025,4 0,0

tt = Température de l'air
td = dewpoint
ff = Vitesse du vent
fx = gusts
dd = Direction du vent
ppp = reduced air pressure
rr = Quantités de précipitations

stations d'obs. à proximité